CYTZ/YTZ METAR and TAF weather

Enter ICAO airport designator
Example: see airport list
Station Type Date Time Source
CYTZ METAR 2016/08/24 19:00 UTC NOAA

CYTZ 241900Z AUTO 16009KT 9SM CLR 27/18 A3007 RMK RVR MISG SLP184 DENSITY ALT 1400FT


Station Type Date Time Source
CYTZ Decoded METAR 2016/08/24 19:00 UTC NOAA

Toronto Island Airport Automated Reporting Station, Canada (CYTZ) 43-38N 079-24W
Aug 24, 2016 - 03:00 PM EDT / 2016.08.24 1900 UTC
Wind: from the SSE (160 degrees) at 10 MPH (9 KT):0
Visibility: 9 mile(s):0
Sky conditions: clear
Temperature: 80 F (27 C)
Dew Point: 64 F (18 C)
Relative Humidity: 57%
Pressure (altimeter): 30.07 in. Hg (1018 hPa)
ob: CYTZ 241900Z AUTO 16009KT 9SM CLR 27/18 A3007 RMK RVR MISG SLP184 DENSITY ALT 1400FT
cycle: 19

Station Type Date Time Source
CYTZ TAF 2016/08/24 20:45 UTC NOAA

TAF TAF CYTZ 241938Z 2420/2520 16010KT P6SM FEW130 FEW250
FM242300 20012KT P6SM BKN120 BKN240
FM250300 21010KT P6SM -SHRA BKN050 OVC120
TEMPO 2503/2508 5SM -SHRA BR BKN020 OVC050
FM250800 24008KT P6SM BKN015 BKN050
FM251600 21012KT P6SM BKN030 PROB30 2519/2520 1SM +TSRA BR BKN015 OVC030CB
RMK FCST BASED ON AUTO OBS. NXT FCST BY 250200Z